Time Latitude Longitude Accuracy (66% radius in meters) Altitude (meters) Speed (km/hour) Bearing (degrees) Battery (%) GPS flag
14:01:25 59.876413 29.925123 61 35 0 0 65 1 delete
15:01:15 59.876405 29.925131 12 34 0 0 65 0 delete
15:01:05 59.876405 29.925131 12 34 0 0 65 0 delete
15:00:45 59.876405 29.925131 12 34 0 0 65 0 delete
15:00:34 59.876405 29.925131 12 34 0 0 65 0 delete
15:00:24 59.876405 29.925131 12 34 0 0 65 0 delete
15:00:14 59.876405 29.925131 12 34 0 0 65 0 delete
15:00:03 59.876405 29.925131 12 34 0 0 65 0 delete
14:59:53 59.876405 29.925131 12 34 0 0 65 0 delete
14:59:43 59.876405 29.925131 12 34 0 0 65 0 delete
14:59:33 59.876405 29.925131 12 34 0 0 65 0 delete
14:59:22 59.876405 29.925131 12 34 0 0 65 0 delete
14:59:12 59.876405 29.925131 12 34 0 0 65 0 delete
14:59:02 59.876405 29.925131 12 34 0 0 65 0 delete
13:58:50 59.876405 29.925124 15 35 0 0 65 1 delete
13:58:41 59.876405 29.925124 21 35 0 0 65 1 delete
13:58:31 59.876405 29.925124 15 35 0 0 65 1 delete
13:58:21 59.876405 29.925129 17 35 0 0 65 1 delete
13:58:11 59.876405 29.925128 12 34 0 0 65 1 delete
13:58:10 59.876405 29.925131 12 34 0 0 65 1 delete
13:58:00 59.876410 29.925296 11 34 0 0 65 1 delete
13:57:53 59.876411 29.925309 11 34 0 0 65 1 delete
13:57:50 59.876410 29.925379 12 34 0 0 65 1 delete
13:57:46 59.876412 29.925490 13 35 0 0 65 1 delete
13:57:44 59.876426 29.925668 18 34 0 0 65 1 delete
13:57:41 59.876482 29.926027 34 34 0 0 65 1 delete
13:57:37 59.876470 29.926547 38 34 0 0 65 1 delete
14:35:39 59.876303 29.925743 11 26 2.1015231609344 30.60000038147 67 0 delete
14:35:29 59.876303 29.925743 11 26 2.1015231609344 30.60000038147 67 0 delete
14:35:18 59.876303 29.925743 11 26 2.1015231609344 30.60000038147 67 0 delete
14:35:08 59.876303 29.925743 11 26 2.1015231609344 30.60000038147 67 0 delete
14:34:57 59.876303 29.925743 11 26 2.1015231609344 30.60000038147 67 0 delete
14:34:47 59.876303 29.925743 11 26 2.1015231609344 30.60000038147 67 0 delete
14:34:37 59.876303 29.925743 11 26 2.1015231609344 30.60000038147 67 0 delete
14:34:27 59.876303 29.925743 11 26 2.1015231609344 30.60000038147 67 0 delete
14:34:17 59.876303 29.925743 11 26 2.1015231609344 30.60000038147 67 0 delete
14:34:06 59.876303 29.925743 11 26 2.1015231609344 30.60000038147 67 0 delete
14:33:56 59.876303 29.925743 11 26 2.1015231609344 30.60000038147 67 0 delete
13:33:40 59.876303 29.925743 11 26 2.1015231609344 30.60000038147 67 1 delete
13:33:35 59.876194 29.925664 8 27 0.79309523105621 306.20001220703 67 1 delete
13:33:28 59.876202 29.925733 10 27 3.0316495895386 204.69999694824 67 1 delete
13:33:25 59.876309 29.925764 12 27 4.072407245636 215.69999694824 67 1 delete
13:33:22 59.876389 29.925903 12 26 2.9713633060455 233.60000610352 67 1 delete
13:33:18 59.876430 29.926073 11 23 4.1501927375793 197.60000610352 67 1 delete
13:33:15 59.876562 29.926113 9 23 2.2603540420532 173.80000305176 67 1 delete
13:33:09 59.876518 29.925996 7 15 0.99080777168274 22.89999961853 67 1 delete
13:33:06 59.876463 29.925853 6 22 2.2531976699829 30.10000038147 67 1 delete
13:33:05 59.876426 29.925778 6 24 2.0110197067261 28.700000762939 67 1 delete
13:33:01 59.876387 29.925722 7 26 0 0 67 1 delete
13:32:54 59.876362 29.925597 10 31 0 0 67 1 delete